createdAt,value
2023-01-09T00:00:34.550Z,42.72
2023-01-09T00:01:34.457Z,39.96
2023-01-09T00:02:34.488Z,43.38
2023-01-09T00:03:34.471Z,40.81
2023-01-09T00:04:34.401Z,44.25
2023-01-09T00:05:34.385Z,40.80
2023-01-09T00:06:34.390Z,42.28
2023-01-09T00:07:34.350Z,45.72
2023-01-09T00:08:34.337Z,45.87
2023-01-09T00:09:34.329Z,44.49
2023-01-09T00:10:34.318Z,44.62
2023-01-09T00:11:34.306Z,45.25
2023-01-09T00:12:34.313Z,42.81
2023-01-09T00:13:34.281Z,42.30
2023-01-09T00:14:34.260Z,42.26
2023-01-09T00:15:34.245Z,41.18
2023-01-09T00:16:34.273Z,40.94
2023-01-09T00:17:34.216Z,41.10
2023-01-09T00:18:34.199Z,39.87
2023-01-09T00:19:34.200Z,42.10
2023-01-09T00:20:34.175Z,39.27
2023-01-09T00:21:34.172Z,42.31
2023-01-09T00:22:34.173Z,42.63
2023-01-09T00:23:34.130Z,41.68
2023-01-09T00:24:34.123Z,41.03
2023-01-09T00:25:34.151Z,41.97
2023-01-09T00:26:34.094Z,41.32
2023-01-09T00:27:34.097Z,42.63
2023-01-09T00:28:34.072Z,43.58
2023-01-09T00:29:34.027Z,39.90
2023-01-09T00:30:34.068Z,43.22
2023-01-09T00:31:34.023Z,43.43
2023-01-09T00:32:33.994Z,42.76
2023-01-09T00:33:33.981Z,41.94
2023-01-09T00:34:34.033Z,41.69
2023-01-09T00:35:33.951Z,42.23
2023-01-09T00:36:33.951Z,40.39
2023-01-09T00:37:33.908Z,41.90
2023-01-09T00:38:33.931Z,43.43
2023-01-09T00:39:33.879Z,43.89
2023-01-09T00:40:33.883Z,42.47
2023-01-09T00:41:33.867Z,45.17
2023-01-09T00:42:33.836Z,42.52
2023-01-09T00:43:33.844Z,42.82
2023-01-09T00:44:33.808Z,43.36
2023-01-09T00:45:33.783Z,43.72
2023-01-09T00:46:33.778Z,45.64
2023-01-09T00:47:34.434Z,43.15
2023-01-09T00:48:33.722Z,43.09
2023-01-09T00:49:33.710Z,41.89
2023-01-09T00:50:33.698Z,44.42
2023-01-09T00:51:33.687Z,42.40
2023-01-09T00:52:33.654Z,43.90
2023-01-09T00:53:33.652Z,44.83
2023-01-09T00:54:33.649Z,42.30
2023-01-09T00:55:33.636Z,41.13
2023-01-09T00:56:34.434Z,43.69
2023-01-09T00:57:33.627Z,39.32
2023-01-09T00:58:33.586Z,40.50
2023-01-09T00:59:33.564Z,43.76
2023-01-09T01:00:33.574Z,45.17
2023-01-09T01:01:33.633Z,44.76
2023-01-09T01:02:33.530Z,43.11
2023-01-09T01:03:33.533Z,42.13
2023-01-09T01:04:33.485Z,45.88
2023-01-09T01:05:33.476Z,43.36
2023-01-09T01:06:33.462Z,42.54
2023-01-09T01:07:33.438Z,41.61
2023-01-09T01:08:33.410Z,45.15
2023-01-09T01:09:33.397Z,41.78
2023-01-09T01:10:33.383Z,42.10
2023-01-09T01:11:33.392Z,42.62
2023-01-09T01:12:33.358Z,43.26
2023-01-09T01:13:33.344Z,40.66
2023-01-09T01:14:33.304Z,42.51
2023-01-09T01:15:33.312Z,40.30
2023-01-09T01:16:33.339Z,42.10
2023-01-09T01:17:33.228Z,41.55
2023-01-09T01:18:33.224Z,43.45
2023-01-09T01:19:33.233Z,43.27
2023-01-09T01:20:33.186Z,39.78
2023-01-09T01:21:33.163Z,40.98
2023-01-09T01:22:33.152Z,40.53
2023-01-09T01:23:33.126Z,44.66
2023-01-09T01:24:33.126Z,42.00
2023-01-09T01:25:33.075Z,43.29
2023-01-09T01:26:33.052Z,42.06
2023-01-09T01:27:33.032Z,43.84
2023-01-09T01:28:33.012Z,41.65
2023-01-09T01:29:33.027Z,43.48
2023-01-09T01:30:33.008Z,42.79
2023-01-09T01:31:32.935Z,40.76
2023-01-09T01:47:32.962Z,42.23
2023-01-09T05:41:28.959Z,37.23
2023-01-09T06:00:28.642Z,33.58
2023-01-09T06:01:28.678Z,37.64
2023-01-09T06:02:28.734Z,33.83
2023-01-09T06:03:28.592Z,34.01
2023-01-09T06:04:28.562Z,32.43
2023-01-09T06:05:28.552Z,31.65
2023-01-09T06:06:28.522Z,33.45
2023-01-09T06:07:28.509Z,32.48
2023-01-09T06:08:28.479Z,34.33
2023-01-09T06:09:28.471Z,34.84
2023-01-09T06:10:28.436Z,35.58
2023-01-09T06:11:28.443Z,33.77
2023-01-09T06:12:28.413Z,32.61
2023-01-09T06:13:28.423Z,33.67
2023-01-09T06:14:28.385Z,36.95
2023-01-09T06:15:28.372Z,35.05
2023-01-09T06:16:28.362Z,33.08
2023-01-09T06:17:28.337Z,34.99
2023-01-09T06:18:28.310Z,35.62
2023-01-09T06:19:28.283Z,36.26
2023-01-09T06:20:28.284Z,34.53
2023-01-09T06:21:28.256Z,33.47
2023-01-09T06:22:28.249Z,34.77
2023-01-09T06:23:28.209Z,33.24
2023-01-09T06:24:28.190Z,35.73
2023-01-09T06:25:28.189Z,35.70
2023-01-09T06:26:28.166Z,35.73
2023-01-09T06:27:28.157Z,33.94
2023-01-09T06:28:28.133Z,16.02
2023-01-09T06:29:28.086Z,24.02
2023-01-09T06:30:28.089Z,29.20
2023-01-09T06:31:28.111Z,33.96
2023-01-09T06:32:28.057Z,38.53
2023-01-09T06:33:28.040Z,43.00
2023-01-09T06:34:28.009Z,54.52
2023-01-09T06:35:28.008Z,50.66
2023-01-09T06:36:27.973Z,52.94
2023-01-09T06:37:27.976Z,53.46
2023-01-09T06:38:27.935Z,51.35
2023-01-09T06:39:27.907Z,46.89
2023-01-09T06:40:27.899Z,54.73
2023-01-09T06:41:27.902Z,31.41
2023-01-09T06:42:27.883Z,39.71
2023-01-09T06:43:27.851Z,40.90
2023-01-09T06:44:27.845Z,35.89
2023-01-09T06:45:27.822Z,17.37
2023-01-09T06:46:27.845Z,8.99
2023-01-09T06:47:27.783Z,2.29
2023-01-09T06:48:27.804Z,29.97
2023-01-09T06:49:27.762Z,38.99
2023-01-09T06:50:27.742Z,49.77
2023-01-09T06:51:27.750Z,49.90
2023-01-09T06:52:27.716Z,47.29
2023-01-09T06:53:27.831Z,50.17
2023-01-09T06:54:28.766Z,50.26
2023-01-09T06:55:27.665Z,49.38
2023-01-09T06:56:27.634Z,52.53
2023-01-09T06:57:27.616Z,60.11
2023-01-09T06:58:27.598Z,63.66
2023-01-09T06:59:27.606Z,70.19
2023-01-09T07:00:27.583Z,78.22
2023-01-09T07:01:27.632Z,82.25
2023-01-09T07:02:27.559Z,85.11
2023-01-09T07:03:27.508Z,92.42
2023-01-09T07:04:27.551Z,93.12
2023-01-09T07:05:27.455Z,100.03
2023-01-09T07:06:27.438Z,102.23
2023-01-09T07:07:27.410Z,105.89
2023-01-09T07:08:27.420Z,110.09
2023-01-09T07:09:27.377Z,113.16
2023-01-09T07:10:27.369Z,114.79
2023-01-09T07:11:27.352Z,115.67
2023-01-09T07:12:27.337Z,116.07
2023-01-09T07:13:27.400Z,115.72
2023-01-09T07:14:27.292Z,112.70
2023-01-09T07:15:27.325Z,106.41
2023-01-09T07:16:27.248Z,101.81
2023-01-09T07:17:27.237Z,96.03
2023-01-09T07:18:27.239Z,100.84
2023-01-09T07:19:27.234Z,105.40
2023-01-09T07:20:27.169Z,100.73
2023-01-09T07:21:27.183Z,101.64
2023-01-09T07:22:27.133Z,101.72
2023-01-09T07:23:27.124Z,101.79
2023-01-09T07:24:27.100Z,99.66
2023-01-09T07:25:27.071Z,93.73
2023-01-09T07:26:27.110Z,81.42
2023-01-09T07:27:27.048Z,80.76
2023-01-09T07:28:27.027Z,78.61
2023-01-09T07:29:27.016Z,74.76
2023-01-09T07:30:27.010Z,75.12
2023-01-09T07:31:27.120Z,75.73
2023-01-09T07:32:26.976Z,72.04
2023-01-09T07:33:26.932Z,73.91
2023-01-09T07:34:26.977Z,63.98
2023-01-09T07:35:26.911Z,71.70
2023-01-09T07:36:26.877Z,62.78
2023-01-09T07:37:26.883Z,58.18
2023-01-09T07:38:26.852Z,57.16
2023-01-09T07:39:26.889Z,46.19
2023-01-09T07:40:26.830Z,44.97
2023-01-09T07:41:26.795Z,45.08
2023-01-09T07:42:26.817Z,52.35
2023-01-09T07:43:26.751Z,32.19
2023-01-09T07:44:26.745Z,40.55
2023-01-09T07:45:26.754Z,57.69
2023-01-09T07:46:26.725Z,60.24
2023-01-09T07:47:26.668Z,50.45
2023-01-09T07:48:26.745Z,62.19
2023-01-09T07:49:26.989Z,60.77
2023-01-09T07:50:26.627Z,56.82
2023-01-09T07:51:26.595Z,57.04
2023-01-09T07:52:26.591Z,57.57
2023-01-09T07:53:26.578Z,56.67
2023-01-09T07:54:26.572Z,59.14
2023-01-09T07:55:26.533Z,55.51
2023-01-09T07:56:26.514Z,55.04
2023-01-09T07:57:26.500Z,46.41
2023-01-09T07:58:26.515Z,56.34
2023-01-09T07:59:26.473Z,48.54
2023-01-09T08:00:26.458Z,43.78
2023-01-09T08:01:26.613Z,53.41
2023-01-09T08:02:26.441Z,43.69
2023-01-09T08:03:26.382Z,38.61
2023-01-09T08:04:26.386Z,42.47
2023-01-09T08:05:26.347Z,49.53
2023-01-09T08:06:26.320Z,41.66
2023-01-09T08:07:26.315Z,42.95
2023-01-09T08:08:26.284Z,41.55
2023-01-09T08:09:26.265Z,40.29
2023-01-09T08:10:26.317Z,41.65
2023-01-09T08:11:26.300Z,32.81
2023-01-09T08:12:26.210Z,38.59
2023-01-09T08:13:26.205Z,43.41
2023-01-09T08:14:26.167Z,32.79
2023-01-09T08:15:26.139Z,34.39
2023-01-09T08:16:26.134Z,34.66
2023-01-09T08:17:26.647Z,34.56
2023-01-09T08:18:26.086Z,37.42
2023-01-09T08:19:26.059Z,41.43
2023-01-09T08:20:26.039Z,41.72
2023-01-09T08:21:26.041Z,43.30
2023-01-09T08:22:26.049Z,45.42
2023-01-09T08:23:25.990Z,44.07
2023-01-09T08:24:25.978Z,42.64
2023-01-09T08:25:25.993Z,36.97
2023-01-09T08:26:25.951Z,31.78
2023-01-09T08:27:25.936Z,32.97
2023-01-09T08:28:25.921Z,35.99
2023-01-09T08:29:25.874Z,35.19
2023-01-09T08:30:25.888Z,43.93
2023-01-09T08:31:25.890Z,44.93
2023-01-09T08:32:25.822Z,41.80
2023-01-09T08:33:25.830Z,57.41
2023-01-09T08:34:25.782Z,46.96
2023-01-09T08:35:25.799Z,44.46
2023-01-09T08:36:25.847Z,29.22
2023-01-09T08:37:25.729Z,28.04
2023-01-09T08:38:25.699Z,25.00
2023-01-09T08:39:25.674Z,39.59
2023-01-09T08:40:25.726Z,46.00
2023-01-09T08:41:25.626Z,58.53
2023-01-09T08:42:25.629Z,39.64
2023-01-09T08:43:25.590Z,48.82
2023-01-09T08:44:25.563Z,43.17
2023-01-09T08:45:25.749Z,57.97
2023-01-09T08:46:25.567Z,73.84
2023-01-09T08:47:25.540Z,73.35
2023-01-09T08:48:25.533Z,102.45
2023-01-09T08:49:25.538Z,87.11
2023-01-09T08:50:25.672Z,66.43
2023-01-09T08:51:25.485Z,53.43
2023-01-09T08:52:25.477Z,23.12
2023-01-09T08:53:25.468Z,0.00
2023-01-09T08:54:25.452Z,30.42
2023-01-09T08:55:25.457Z,67.98
2023-01-09T08:56:25.447Z,27.39
2023-01-09T08:57:25.445Z,25.00
2023-01-09T08:58:25.426Z,25.93
2023-01-09T08:59:25.436Z,25.00
2023-01-09T09:00:25.764Z,29.65
2023-01-09T09:01:25.445Z,20.98
2023-01-09T09:02:25.452Z,25.00
2023-01-09T09:03:25.427Z,25.24
2023-01-09T09:04:25.415Z,25.92
2023-01-09T09:05:25.504Z,26.59
2023-01-09T09:06:25.401Z,28.46
2023-01-09T09:07:25.403Z,46.33
2023-01-09T09:08:25.422Z,69.56
2023-01-09T09:09:25.409Z,69.05
2023-01-09T09:10:25.451Z,75.64
2023-01-09T09:11:25.476Z,74.51
2023-01-09T09:12:25.435Z,74.99
2023-01-09T09:13:25.405Z,76.88
2023-01-09T09:14:25.762Z,82.48
2023-01-09T09:15:25.421Z,91.20
2023-01-09T09:16:25.511Z,98.73
2023-01-09T09:17:25.371Z,110.39
2023-01-09T09:18:25.395Z,111.66
2023-01-09T09:19:25.355Z,118.31
2023-01-09T09:20:26.153Z,120.62
2023-01-09T09:21:25.333Z,125.69
2023-01-09T09:22:25.320Z,129.33
2023-01-09T09:23:25.305Z,136.05
2023-01-09T09:24:25.306Z,142.15
2023-01-09T09:25:25.375Z,148.47
2023-01-09T09:26:25.461Z,155.95
2023-01-09T09:27:25.265Z,154.70
2023-01-09T09:28:25.258Z,160.09
2023-01-09T09:29:25.247Z,164.70
2023-01-09T09:30:25.230Z,169.89
2023-01-09T09:31:25.309Z,171.35
2023-01-09T09:32:25.193Z,172.31
2023-01-09T09:33:25.197Z,175.46
2023-01-09T09:34:25.170Z,183.76
2023-01-09T09:35:25.185Z,192.39
2023-01-09T09:36:25.148Z,199.94
2023-01-09T09:37:25.124Z,210.21
2023-01-09T09:38:25.089Z,220.22
2023-01-09T09:39:25.073Z,266.88
2023-01-09T09:40:25.668Z,224.38
2023-01-09T09:41:25.045Z,204.95
2023-01-09T09:42:25.450Z,197.58
2023-01-09T09:43:25.016Z,192.78
2023-01-09T09:44:25.081Z,190.90
2023-01-09T09:46:25.405Z,184.31
2023-01-09T09:47:24.945Z,173.02
2023-01-09T09:48:24.941Z,166.04
2023-01-09T09:49:24.955Z,171.11
2023-01-09T09:50:24.927Z,176.78
2023-01-09T09:51:24.891Z,176.67
2023-01-09T09:52:24.889Z,172.31
2023-01-09T09:53:24.859Z,185.71
2023-01-09T09:54:24.896Z,186.98
2023-01-09T09:55:24.819Z,179.91
2023-01-09T09:56:24.794Z,177.22
2023-01-09T09:57:24.768Z,182.84
2023-01-09T09:58:24.743Z,177.15
2023-01-09T09:59:26.843Z,181.38
2023-01-09T10:00:24.722Z,184.17
2023-01-09T10:01:24.691Z,184.34
2023-01-09T10:02:24.692Z,184.48
2023-01-09T10:03:33.376Z,184.39
2023-01-09T10:04:25.620Z,184.66
2023-01-09T10:05:24.639Z,181.86
2023-01-09T10:06:24.579Z,180.31
2023-01-09T10:07:24.584Z,179.79
2023-01-09T10:08:24.584Z,166.98
2023-01-09T10:09:24.553Z,169.54
2023-01-09T10:10:24.540Z,169.24
2023-01-09T10:11:24.557Z,167.25
2023-01-09T10:12:24.488Z,166.42
2023-01-09T10:13:24.501Z,169.61
2023-01-09T10:14:24.858Z,172.48
2023-01-09T10:15:24.439Z,172.02
2023-01-09T10:16:24.622Z,172.04
2023-01-09T10:17:24.418Z,169.59
2023-01-09T10:18:24.393Z,165.11
2023-01-09T10:19:24.359Z,165.52
2023-01-09T10:20:24.362Z,164.15
2023-01-09T10:21:24.347Z,158.97
2023-01-09T10:22:25.190Z,159.52
2023-01-09T10:23:24.317Z,160.55
2023-01-09T10:24:24.304Z,158.40
2023-01-09T10:25:24.259Z,155.75
2023-01-09T10:26:24.245Z,157.09
2023-01-09T10:27:24.240Z,154.72
2023-01-09T10:28:24.200Z,154.99
2023-01-09T10:29:24.182Z,152.16
2023-01-09T10:30:24.173Z,152.36
2023-01-09T10:31:24.173Z,152.39
2023-01-09T10:32:24.136Z,152.95
2023-01-09T10:33:24.109Z,150.79
2023-01-09T10:34:24.118Z,148.82
2023-01-09T10:35:24.083Z,147.28
2023-01-09T10:36:24.072Z,146.51
2023-01-09T10:37:24.056Z,142.20
2023-01-09T10:38:24.057Z,138.01
2023-01-09T10:39:24.055Z,134.46
2023-01-09T10:40:24.056Z,140.89
2023-01-09T10:41:24.004Z,141.97
2023-01-09T10:42:23.993Z,142.82
2023-01-09T10:43:23.960Z,144.34
2023-01-09T10:44:23.947Z,147.80
2023-01-09T10:45:23.919Z,151.51
2023-01-09T10:46:23.945Z,160.21
2023-01-09T10:47:23.903Z,167.54
2023-01-09T10:48:23.857Z,169.69
2023-01-09T10:49:23.849Z,170.26
2023-01-09T10:50:23.837Z,170.42
2023-01-09T10:51:23.825Z,163.67
2023-01-09T10:52:23.792Z,165.50
2023-01-09T10:53:23.767Z,167.52
2023-01-09T10:54:23.760Z,160.73
2023-01-09T10:55:23.720Z,161.01
2023-01-09T10:56:23.705Z,161.57
2023-01-09T10:57:23.674Z,161.21
2023-01-09T10:58:23.649Z,160.50
2023-01-09T10:59:23.654Z,155.98
2023-01-09T11:00:24.000Z,155.08
2023-01-09T11:01:23.599Z,152.16
2023-01-09T11:02:23.630Z,152.94
2023-01-09T11:03:23.629Z,151.85
2023-01-09T11:04:23.546Z,148.64
2023-01-09T11:05:23.550Z,149.29
2023-01-09T11:06:23.536Z,149.57
2023-01-09T11:07:23.504Z,149.70
2023-01-09T11:08:23.467Z,149.39
2023-01-09T11:09:23.453Z,145.84
2023-01-09T11:10:23.435Z,146.02
2023-01-09T11:11:23.422Z,144.89
2023-01-09T11:12:23.460Z,142.70
2023-01-09T11:13:23.375Z,142.78
2023-01-09T11:14:23.344Z,142.59
2023-01-09T11:15:23.326Z,138.80
2023-01-09T11:16:23.393Z,132.24
2023-01-09T11:17:23.297Z,132.01
2023-01-09T11:18:23.276Z,132.26
2023-01-09T11:19:23.242Z,132.42
2023-01-09T11:20:23.265Z,125.64
2023-01-09T11:21:23.203Z,125.49
2023-01-09T11:22:23.162Z,130.45
2023-01-09T11:23:23.166Z,130.93
2023-01-09T11:24:23.143Z,122.53
2023-01-09T11:25:23.099Z,126.24
2023-01-09T11:26:23.079Z,129.22
2023-01-09T11:27:23.059Z,120.31
2023-01-09T11:28:23.055Z,133.48
2023-01-09T11:29:23.023Z,137.32
2023-01-09T11:30:23.232Z,122.61
2023-01-09T11:31:23.057Z,128.44
2023-01-09T11:32:22.961Z,126.36
2023-01-09T11:33:23.219Z,125.40
2023-01-09T11:34:22.896Z,130.81
2023-01-09T11:35:22.911Z,136.78
2023-01-09T11:36:22.859Z,142.42
2023-01-09T11:37:23.702Z,148.77
2023-01-09T11:38:22.813Z,153.93
2023-01-09T11:39:22.794Z,159.85
2023-01-09T11:40:22.789Z,160.25
2023-01-09T11:41:22.802Z,160.39
2023-01-09T11:42:22.762Z,160.72
2023-01-09T11:43:22.719Z,162.39
2023-01-09T11:44:22.784Z,168.34
2023-01-09T11:45:22.665Z,172.09
2023-01-09T11:46:22.771Z,172.98
2023-01-09T11:47:22.644Z,169.65
2023-01-09T11:48:22.594Z,170.84
2023-01-09T11:49:22.555Z,170.25
2023-01-09T11:50:22.528Z,173.77
2023-01-09T11:51:22.534Z,173.77
2023-01-09T11:52:22.515Z,175.51
2023-01-09T11:53:22.523Z,175.40
2023-01-09T11:54:22.472Z,172.92
2023-01-09T11:55:25.373Z,173.69
2023-01-09T11:56:22.429Z,173.91
2023-01-09T11:57:22.379Z,173.79
2023-01-09T11:58:22.368Z,173.99
2023-01-09T11:59:22.348Z,174.81
2023-01-09T12:00:22.305Z,174.03
2023-01-09T12:01:22.292Z,174.58
2023-01-09T12:02:22.316Z,175.85
2023-01-09T12:03:22.272Z,172.66
2023-01-09T12:04:22.192Z,157.29
2023-01-09T12:05:22.166Z,162.47
2023-01-09T12:06:22.151Z,155.71
2023-01-09T12:07:22.138Z,158.28
2023-01-09T12:08:22.112Z,160.18
2023-01-09T12:09:22.075Z,161.49
2023-01-09T12:10:22.061Z,162.32
2023-01-09T12:11:22.029Z,152.90
2023-01-09T12:12:22.021Z,161.18
2023-01-09T12:13:21.971Z,163.36
2023-01-09T12:14:22.007Z,167.23
2023-01-09T12:15:21.935Z,162.87
2023-01-09T12:16:22.051Z,164.80
2023-01-09T12:17:21.900Z,166.95
2023-01-09T12:18:21.877Z,159.64
2023-01-09T12:19:21.884Z,165.93
2023-01-09T12:20:21.820Z,171.95
2023-01-09T12:21:21.811Z,171.83
2023-01-09T12:22:21.780Z,153.83
2023-01-09T12:23:21.758Z,147.80
2023-01-09T12:24:21.771Z,138.77
2023-01-09T12:25:21.713Z,133.34
2023-01-09T12:26:21.721Z,106.07
2023-01-09T12:27:21.708Z,111.20
2023-01-09T12:28:21.655Z,100.93
2023-01-09T12:29:21.665Z,89.79
2023-01-09T12:30:21.612Z,87.38
2023-01-09T12:31:21.688Z,70.76
2023-01-09T12:32:21.562Z,53.42
2023-01-09T12:33:21.557Z,40.01
2023-01-09T12:34:21.560Z,28.16
2023-01-09T12:35:21.527Z,25.00
2023-01-09T12:36:21.492Z,25.73
2023-01-09T12:37:21.491Z,29.68
2023-01-09T12:38:21.455Z,25.18
2023-01-09T12:39:21.437Z,22.31
2023-01-09T12:40:21.427Z,29.61
2023-01-09T12:41:21.401Z,46.32
2023-01-09T12:42:21.414Z,43.24
2023-01-09T12:43:21.380Z,40.26
2023-01-09T12:44:34.321Z,45.27
2023-01-09T12:45:22.392Z,46.44
2023-01-09T12:46:21.379Z,40.64
2023-01-09T12:47:21.304Z,34.34
2023-01-09T12:48:21.301Z,35.56
2023-01-09T12:49:21.294Z,31.79
2023-01-09T12:50:21.276Z,42.30
2023-01-09T12:51:21.275Z,42.32
2023-01-09T12:52:21.262Z,54.14
2023-01-09T12:53:21.260Z,87.09
2023-01-09T12:54:21.236Z,78.86
2023-01-09T12:55:21.214Z,116.21
2023-01-09T12:56:21.187Z,154.74
2023-01-09T12:57:21.201Z,167.26
2023-01-09T12:58:21.170Z,171.87
2023-01-09T12:59:21.181Z,170.55
2023-01-09T13:00:21.136Z,170.20
2023-01-09T13:01:21.162Z,174.83
2023-01-09T13:02:21.147Z,177.79
2023-01-09T13:03:21.118Z,182.14
2023-01-09T13:04:21.064Z,190.22
2023-01-09T13:05:21.049Z,192.02
2023-01-09T13:06:21.035Z,189.65
2023-01-09T13:07:21.016Z,194.44
2023-01-09T13:08:21.002Z,192.88
2023-01-09T13:09:20.972Z,201.48
2023-01-09T13:10:20.976Z,212.31
2023-01-09T13:11:21.300Z,195.93
2023-01-09T13:12:20.911Z,197.65
2023-01-09T13:13:20.892Z,203.01
2023-01-09T13:14:20.899Z,208.93
2023-01-09T13:15:20.867Z,208.15
2023-01-09T13:16:20.902Z,207.03
2023-01-09T13:17:20.817Z,204.55
2023-01-09T13:18:20.822Z,202.52
2023-01-09T13:19:20.789Z,199.13
2023-01-09T13:20:20.774Z,198.70
2023-01-09T13:21:20.761Z,198.80
2023-01-09T13:22:20.720Z,198.95
2023-01-09T13:23:20.689Z,196.65
2023-01-09T13:24:20.692Z,195.21
2023-01-09T13:25:20.696Z,192.97
2023-01-09T13:26:20.642Z,187.41
2023-01-09T13:27:20.609Z,190.09
2023-01-09T13:28:20.589Z,186.17
2023-01-09T13:29:20.579Z,184.51
2023-01-09T13:30:20.570Z,186.71
2023-01-09T13:31:20.554Z,182.23
2023-01-09T13:32:20.500Z,173.11
2023-01-09T13:33:20.488Z,165.94
2023-01-09T13:34:22.378Z,178.64
2023-01-09T13:35:20.474Z,183.24
2023-01-09T13:36:20.445Z,183.55
2023-01-09T13:37:20.407Z,176.08
2023-01-09T13:38:20.391Z,188.60
2023-01-09T13:39:20.372Z,199.51
2023-01-09T13:40:20.394Z,203.20
2023-01-09T13:41:20.326Z,201.63
2023-01-09T13:42:20.306Z,194.84
2023-01-09T13:43:20.291Z,196.31
2023-01-09T13:44:20.284Z,199.08
2023-01-09T13:45:20.213Z,198.84
2023-01-09T13:46:20.185Z,200.40
2023-01-09T13:47:20.158Z,199.33
2023-01-09T13:48:20.259Z,200.56
2023-01-09T13:49:20.127Z,201.47
2023-01-09T13:50:20.101Z,203.99
2023-01-09T13:51:20.049Z,205.97
2023-01-09T13:52:20.042Z,207.09
2023-01-09T13:53:20.083Z,206.22
2023-01-09T13:54:19.996Z,206.33
2023-01-09T13:55:19.958Z,205.65
2023-01-09T13:56:22.788Z,206.58
2023-01-09T13:57:19.937Z,203.88
2023-01-09T13:58:19.889Z,206.62
2023-01-09T13:59:19.862Z,205.81
2023-01-09T14:00:19.844Z,206.80
2023-01-09T14:01:19.859Z,206.33
2023-01-09T14:02:19.845Z,207.69
2023-01-09T14:03:19.764Z,208.90
2023-01-09T14:04:19.749Z,206.21
2023-01-09T14:05:19.709Z,204.52
2023-01-09T14:06:19.716Z,203.22
2023-01-09T14:07:19.675Z,202.33
2023-01-09T14:08:19.652Z,201.81
2023-01-09T14:09:19.629Z,200.00
2023-01-09T14:10:19.590Z,204.34
2023-01-09T14:11:19.576Z,205.26
2023-01-09T14:12:19.563Z,201.28
2023-01-09T14:13:19.519Z,196.73
2023-01-09T14:14:19.495Z,192.64
2023-01-09T14:15:19.472Z,191.96
2023-01-09T14:16:19.507Z,194.06
2023-01-09T14:17:19.429Z,194.37
2023-01-09T14:18:19.396Z,192.73
2023-01-09T14:19:19.376Z,194.43
2023-01-09T14:20:19.353Z,188.20
2023-01-09T14:21:19.323Z,190.17
2023-01-09T14:23:35.273Z,191.44
2023-01-09T14:25:19.230Z,191.61
2023-01-09T14:26:19.202Z,185.43
2023-01-09T14:27:19.173Z,184.85
2023-01-09T14:28:19.154Z,191.55
2023-01-09T14:29:19.117Z,200.34
2023-01-09T14:30:19.093Z,199.01
2023-01-09T14:31:19.164Z,199.23
2023-01-09T14:32:19.036Z,201.85
2023-01-09T14:33:19.007Z,206.79
2023-01-09T14:34:30.255Z,211.33
2023-01-09T14:36:18.963Z,206.66
2023-01-09T14:37:18.930Z,206.71
2023-01-09T14:38:18.904Z,208.01
2023-01-09T14:39:18.882Z,214.09
2023-01-09T14:40:18.875Z,213.39
2023-01-09T14:41:18.848Z,214.47
2023-01-09T14:42:18.809Z,207.15
2023-01-09T14:43:18.791Z,202.16
2023-01-09T14:44:18.763Z,209.28
2023-01-09T14:45:18.743Z,213.66
2023-01-09T14:46:18.804Z,211.82
2023-01-09T14:47:18.715Z,205.03
2023-01-09T14:48:18.685Z,212.04
2023-01-09T14:49:18.658Z,214.19
2023-01-09T14:50:18.651Z,211.68
2023-01-09T14:51:18.649Z,205.80
2023-01-09T14:52:18.604Z,212.44
2023-01-09T14:53:18.585Z,217.08
2023-01-09T14:54:18.562Z,219.14
2023-01-09T14:55:18.535Z,217.30
2023-01-09T14:56:18.495Z,217.26
2023-01-09T14:57:18.467Z,212.94
2023-01-09T14:58:18.466Z,212.43
2023-01-09T14:59:18.433Z,217.58
2023-01-09T15:00:18.394Z,220.33
2023-01-09T15:01:18.440Z,220.07
2023-01-09T15:02:18.515Z,220.26
2023-01-09T15:03:18.348Z,220.24
2023-01-09T15:04:18.297Z,220.49
2023-01-09T15:05:18.271Z,221.21
2023-01-09T15:06:18.239Z,215.31
2023-01-09T15:07:18.232Z,219.49
2023-01-09T15:08:18.208Z,217.10
2023-01-09T15:09:18.172Z,215.59
2023-01-09T15:10:18.159Z,220.72
2023-01-09T15:11:18.144Z,223.92
2023-01-09T15:12:18.135Z,206.49
2023-01-09T15:13:18.102Z,208.48
2023-01-09T15:14:18.086Z,212.32
2023-01-09T15:15:18.045Z,211.64
2023-01-09T15:16:18.034Z,221.40
2023-01-09T15:17:18.026Z,211.21
2023-01-09T15:18:17.988Z,204.58
2023-01-09T15:19:17.966Z,203.19
2023-01-09T15:20:17.950Z,201.73
2023-01-09T15:21:17.913Z,199.28
2023-01-09T15:22:17.901Z,201.32
2023-01-09T15:23:17.887Z,196.48
2023-01-09T15:24:17.856Z,195.21
2023-01-09T15:25:19.313Z,192.96
2023-01-09T15:26:17.804Z,194.48
2023-01-09T15:27:17.786Z,189.70
2023-01-09T15:28:17.761Z,184.40
2023-01-09T15:29:17.753Z,182.51
2023-01-09T15:30:17.727Z,182.86
2023-01-09T15:31:17.745Z,182.60
2023-01-09T15:32:17.710Z,179.85
2023-01-09T15:33:17.658Z,181.93
2023-01-09T15:34:17.646Z,172.32
2023-01-09T15:35:17.633Z,166.39
2023-01-09T15:36:17.624Z,162.70
2023-01-09T16:23:16.736Z,143.01
2023-01-09T16:24:16.711Z,143.27
2023-01-09T16:25:16.694Z,145.04
2023-01-09T16:26:16.698Z,145.21
2023-01-09T16:27:16.663Z,145.24
2023-01-09T16:29:16.650Z,147.94
2023-01-09T16:30:16.639Z,146.76
2023-01-09T16:31:16.610Z,147.62
2023-01-09T16:32:16.604Z,147.29
2023-01-09T16:33:16.597Z,149.06
2023-01-09T16:34:16.576Z,147.60
2023-01-09T16:35:16.554Z,148.76
2023-01-09T16:36:16.563Z,147.93
2023-01-09T16:37:16.597Z,147.98
2023-01-09T16:38:16.511Z,148.89
2023-01-09T16:39:17.322Z,150.18
2023-01-09T16:40:16.476Z,150.01
2023-01-09T16:41:16.452Z,152.53
2023-01-09T16:42:16.440Z,151.84
2023-01-09T16:43:16.414Z,152.07
2023-01-09T16:44:16.392Z,152.09
2023-01-09T16:45:16.375Z,152.80
2023-01-09T16:46:16.419Z,153.39
2023-01-09T16:47:16.338Z,154.57
2023-01-09T16:48:16.319Z,154.48
2023-01-09T16:49:16.340Z,152.48
2023-01-09T16:50:16.303Z,154.00
2023-01-09T16:51:16.310Z,154.78
2023-01-09T16:52:16.297Z,153.90
2023-01-09T16:53:16.259Z,156.39
2023-01-09T16:54:16.256Z,159.47
2023-01-09T16:55:16.234Z,157.42
2023-01-09T16:56:16.201Z,157.47
2023-01-09T16:57:16.192Z,157.23
2023-01-09T16:58:18.468Z,158.40
2023-01-09T16:59:16.242Z,161.29
2023-01-09T17:00:16.233Z,161.53
2023-01-09T17:01:16.246Z,159.75
2023-01-09T17:02:16.261Z,160.13
2023-01-09T17:03:16.195Z,158.10
2023-01-09T17:04:16.191Z,158.92
2023-01-09T17:05:16.162Z,160.37
2023-01-09T17:06:16.135Z,159.37
2023-01-09T17:07:16.149Z,163.14
2023-01-09T17:08:16.127Z,161.99
2023-01-09T17:09:16.083Z,161.40
2023-01-09T17:10:16.056Z,162.15
2023-01-09T17:11:16.047Z,164.03
2023-01-09T17:12:16.024Z,164.13
2023-01-09T17:13:16.013Z,164.59
2023-01-09T17:14:15.994Z,164.20
2023-01-09T17:15:15.979Z,164.20
2023-01-09T17:16:15.995Z,164.39
2023-01-09T17:17:15.951Z,164.93
2023-01-09T17:18:15.922Z,166.66
2023-01-09T17:19:15.932Z,167.66
2023-01-09T17:20:15.908Z,164.63
2023-01-09T17:21:15.908Z,166.25
2023-01-09T17:22:15.898Z,166.58
2023-01-09T17:23:15.877Z,168.98
2023-01-09T17:24:15.876Z,166.08
2023-01-09T17:25:15.802Z,167.21
2023-01-09T17:26:15.806Z,167.55
2023-01-09T17:27:15.765Z,167.50
2023-01-09T17:28:15.745Z,168.19
2023-01-09T17:29:15.754Z,169.05
2023-01-09T17:30:19.606Z,168.45
2023-01-09T17:31:15.803Z,167.27
2023-01-09T17:32:15.787Z,167.04
2023-01-09T17:33:15.661Z,165.38
2023-01-09T17:34:15.650Z,168.59
2023-01-09T17:35:15.641Z,167.70
2023-01-09T17:36:15.611Z,165.81
2023-01-09T17:37:15.720Z,167.89
2023-01-09T17:38:15.592Z,168.30
2023-01-09T17:39:15.564Z,167.89
2023-01-09T17:40:15.547Z,168.15
2023-01-09T17:41:15.533Z,165.02
2023-01-09T17:42:15.525Z,165.67
2023-01-09T17:43:15.521Z,167.21
2023-01-09T17:44:15.504Z,165.39
2023-01-09T17:45:15.469Z,165.34
2023-01-09T17:46:15.537Z,166.17
2023-01-09T17:47:15.460Z,167.81
2023-01-09T17:48:15.408Z,164.43
2023-01-09T17:49:15.376Z,164.34
2023-01-09T17:50:15.370Z,164.48
2023-01-09T17:51:15.375Z,164.79
2023-01-09T17:52:15.341Z,168.17
2023-01-09T17:53:15.329Z,166.17
2023-01-09T17:54:15.294Z,165.86